Time;durP1;ratioP1;P1;durP2;ratioP2;P2;SDS_P1;SDS_P2;PMS_P1;PMS_P2;Temp;Humidity;BMP_temperature;BMP_pressure;BME280_temperature;BME280_humidity;BME280_pressure;Samples;Min_cycle;Max_cycle;Signal;HPM_P1;HPM_P2
2024/01/17 00:00:18;;;;;;;50.45;25.08;;;;;;;-142.91;100.00;56616.03;5045479;28;20360;-74
2024/01/17 00:02:45;;;;;;;62.00;26.52;;;;;;;-142.91;100.00;56616.03;5040685;28;20210;-71
2024/01/17 00:05:11;;;;;;;43.03;22.90;;;;;;;;;;5043215;28;20603;-71
2024/01/17 00:07:38;;;;;;;47.97;25.13;;;;;;;-142.91;100.00;56616.03;5040969;28;20333;-72
2024/01/17 00:10:06;;;;;;;54.92;26.25;;;;;;;-142.91;100.00;56616.03;5036919;28;20299;-72
2024/01/17 00:12:34;;;;;;;50.10;25.48;;;;;;;-142.91;100.00;56616.03;5043091;28;22600;-69
2024/01/17 00:15:01;;;;;;;51.03;26.50;;;;;;;-142.91;100.00;56616.03;5042984;28;20275;-70
2024/01/17 00:17:28;;;;;;;51.63;25.92;;;;;;;;;;5046525;28;20215;-69
2024/01/17 00:19:54;;;;;;;55.40;26.67;;;;;;;-142.91;100.00;56616.03;5042419;28;21529;-71
2024/01/17 00:22:21;;;;;;;50.47;25.15;;;;;;;-142.91;100.00;56616.03;5046417;28;20224;-71
2024/01/17 00:24:49;;;;;;;53.28;25.63;;;;;;;-142.91;100.00;56616.03;5042133;28;20783;-72
2024/01/17 00:27:16;;;;;;;50.72;27.02;;;;;;;-142.91;100.00;56616.03;5047024;28;20579;-71
2024/01/17 00:29:45;;;;;;;55.70;26.50;;;;;;;-142.91;100.00;56616.03;5038474;28;20675;-72
2024/01/17 00:32:12;;;;;;;55.40;26.90;;;;;;;-142.91;100.00;56616.03;5043083;28;20302;-71
2024/01/17 00:34:38;;;;;;;54.72;27.85;;;;;;;-142.91;100.00;56616.03;5043830;28;20198;-71
2024/01/17 00:37:05;;;;;;;50.60;27.67;;;;;;;-142.91;100.00;56616.03;5044327;28;20236;-68
2024/01/17 00:39:32;;;;;;;55.47;28.60;;;;;;;-142.91;100.00;56616.03;5037817;28;20206;-71
2024/01/17 00:41:59;;;;;;;56.35;27.92;;;;;;;-142.91;100.00;56616.03;5064307;28;20687;-70
2024/01/17 00:44:27;;;;;;;56.00;27.48;;;;;;;;;;5063656;28;20240;-70
2024/01/17 00:46:55;;;;;;;53.10;29.27;;;;;;;-142.91;100.00;56616.03;5063767;28;20205;-70
2024/01/17 00:49:21;;;;;;;69.95;30.58;;;;;;;-142.91;100.00;56616.03;5063715;28;20198;-69
2024/01/17 00:51:48;;;;;;;52.22;28.63;;;;;;;;;;5064459;28;20297;-70
2024/01/17 00:54:14;;;;;;;56.33;26.75;;;;;;;-142.91;100.00;56616.03;5059423;28;20289;-69
2024/01/17 00:56:41;;;;;;;56.80;28.15;;;;;;;-142.91;100.00;56616.03;5059972;28;20229;-70
2024/01/17 00:59:07;;;;;;;48.60;26.85;;;;;;;;;;5060380;28;21107;-69
2024/01/17 01:01:33;;;;;;;58.15;27.52;;;;;;;-142.91;100.00;56616.03;5060910;28;20744;-70
2024/01/17 01:04:01;;;;;;;64.82;26.58;;;;;;;-142.91;100.00;56616.03;5060597;28;20202;-69
2024/01/17 01:06:27;;;;;;;60.85;26.77;;;;;;;-142.91;100.00;56616.03;5060592;28;20295;-71
2024/01/17 01:08:54;;;;;;;54.40;26.55;;;;;;;-142.91;100.00;56616.03;5057580;28;20202;-71
2024/01/17 01:11:21;;;;;;;49.78;24.80;;;;;;;-142.91;100.00;56616.03;5064458;28;20206;-71
2024/01/17 01:13:47;;;;;;;55.92;26.60;;;;;;;-142.91;100.00;56616.03;5063958;28;20297;-71
2024/01/17 01:16:14;;;;;;;75.93;30.65;;;;;;;-142.91;100.00;56616.03;5064439;28;20309;-72
2024/01/17 01:18:41;;;;;;;62.05;29.60;;;;;;;-142.91;100.00;56616.03;5063216;28;20202;-70
2024/01/17 01:21:09;;;;;;;69.68;30.85;;;;;;;-142.91;100.00;56616.03;5062137;28;20313;-70
2024/01/17 01:23:35;;;;;;;55.92;26.83;;;;;;;-142.91;100.00;56616.03;5060785;28;20755;-72
2024/01/17 01:26:02;;;;;;;54.80;27.02;;;;;;;-142.91;100.00;56616.03;5058059;28;20330;-71
2024/01/17 01:28:29;;;;;;;53.50;26.65;;;;;;;-142.91;100.00;56616.03;5061660;28;20279;-71
2024/01/17 01:30:55;;;;;;;66.25;29.55;;;;;;;-142.91;100.00;56616.03;5062847;28;20195;-71
2024/01/17 01:33:22;;;;;;;72.68;30.10;;;;;;;-142.91;100.00;56616.03;5063084;28;20293;-70
2024/01/17 01:35:49;;;;;;;65.07;29.63;;;;;;;-142.91;100.00;56616.03;5062501;28;20234;-71
2024/01/17 01:38:17;;;;;;;69.32;29.08;;;;;;;-142.91;100.00;56616.03;5063163;28;20290;-70
2024/01/17 01:40:44;;;;;;;58.92;27.58;;;;;;;-142.91;100.00;56616.03;5064653;28;20293;-70
2024/01/17 01:43:20;;;;;;;52.42;26.55;;;;;;;-142.91;100.00;56616.03;5064957;28;20317;-69
2024/01/17 01:46:13;;;;;;;47.70;24.70;;;;;;;-142.91;100.00;56616.03;5067494;28;20281;-69
2024/01/17 01:48:41;;;;;;;51.05;25.17;;;;;;;;;;5066488;28;20210;-71
2024/01/17 01:51:07;;;;;;;48.42;22.55;;;;;;;-142.91;100.00;56616.03;5068358;28;20341;-72
2024/01/17 01:53:37;;;;;;;46.10;21.05;;;;;;;-142.91;100.00;56616.03;5068387;28;20306;-72
2024/01/17 01:56:04;;;;;;;47.10;23.52;;;;;;;-142.91;100.00;56616.03;5067592;28;20320;-70
2024/01/17 01:58:31;;;;;;;43.85;22.00;;;;;;;;;;5067975;28;20311;-70
2024/01/17 02:00:59;;;;;;;48.40;22.35;;;;;;;-142.91;100.00;56616.03;5066317;28;20759;-70
2024/01/17 02:03:27;;;;;;;45.15;22.75;;;;;;;-142.91;100.00;56616.03;5068387;28;20290;-70
2024/01/17 02:05:54;;;;;;;38.72;21.98;;;;;;;-142.91;100.00;56616.03;5067421;28;20281;-71
2024/01/17 02:08:21;;;;;;;41.90;22.38;;;;;;;-142.91;100.00;56616.03;5067630;28;20293;-70
2024/01/17 02:10:49;;;;;;;38.67;21.15;;;;;;;-142.91;100.00;56616.03;5067718;28;20297;-70
2024/01/17 02:13:16;;;;;;;43.63;21.05;;;;;;;-142.91;100.00;56616.03;5067424;28;20692;-70
2024/01/17 02:15:42;;;;;;;43.85;20.13;;;;;;;-142.91;100.00;56616.03;5067427;28;20424;-69
2024/01/17 02:18:09;;;;;;;41.10;21.55;;;;;;;;;;5067433;28;21020;-71
2024/01/17 02:20:36;;;;;;;39.47;20.70;;;;;;;-142.91;100.00;56616.03;5067705;28;20293;-69
2024/01/17 02:23:03;;;;;;;41.03;20.13;;;;;;;;;;5067621;28;20599;-71
2024/01/17 02:25:31;;;;;;;39.33;20.25;;;;;;;-142.91;100.00;56616.03;5067906;28;20743;-70
2024/01/17 02:27:58;;;;;;;39.70;21.17;;;;;;;-142.91;100.00;56616.03;5067532;28;20313;-72
2024/01/17 02:30:24;;;;;;;40.42;21.60;;;;;;;-142.91;100.00;56616.03;5067788;28;20297;-71
2024/01/17 02:32:51;;;;;;;37.88;19.92;;;;;;;-142.91;100.00;56616.03;5068036;28;20294;-70
2024/01/17 02:35:20;;;;;;;37.03;20.08;;;;;;;;;;5067339;28;20688;-71
2024/01/17 02:37:46;;;;;;;37.00;20.40;;;;;;;-142.91;100.00;56616.03;5064435;28;20691;-72
2024/01/17 02:40:13;;;;;;;35.00;19.50;;;;;;;-142.91;100.00;56616.03;5067729;28;20301;-71
2024/01/17 02:42:41;;;;;;;34.08;18.95;;;;;;;-142.91;100.00;56616.03;5067593;28;20289;-69
2024/01/17 02:45:08;;;;;;;36.00;19.30;;;;;;;-142.91;100.00;56616.03;5066777;28;20300;-71
2024/01/17 02:47:35;;;;;;;37.13;19.92;;;;;;;-142.91;100.00;56616.03;5067393;28;20218;-72
2024/01/17 02:50:01;;;;;;;38.88;20.45;;;;;;;-142.91;100.00;56616.03;5067114;28;20289;-71
2024/01/17 02:52:28;;;;;;;46.58;21.42;;;;;;;-142.91;100.00;56616.03;5067768;28;20289;-70
2024/01/17 02:54:55;;;;;;;38.45;21.35;;;;;;;-142.91;100.00;56616.03;5066263;28;20302;-71
2024/01/17 02:57:21;;;;;;;34.90;19.60;;;;;;;-142.91;100.00;56616.03;5067125;28;20313;-71
2024/01/17 02:59:49;;;;;;;35.90;20.90;;;;;;;23.29;100.00;56616.03;5067042;28;20295;-71
2024/01/17 03:02:16;;;;;;;47.47;22.30;;;;;;;-142.91;100.00;56616.03;5066506;28;20277;-72
2024/01/17 03:04:42;;;;;;;42.45;21.92;;;;;;;-142.91;100.00;56616.03;5067154;28;20708;-71
2024/01/17 03:07:09;;;;;;;42.30;21.30;;;;;;;-142.91;100.00;56616.03;5067715;28;20286;-71
2024/01/17 03:09:37;;;;;;;43.15;20.75;;;;;;;-142.91;100.00;56616.03;5067207;28;20302;-70
2024/01/17 03:12:04;;;;;;;45.25;22.40;;;;;;;-142.91;100.00;56616.03;5067078;28;20206;-71
2024/01/17 03:14:31;;;;;;;38.58;20.55;;;;;;;-142.91;100.00;56616.03;5067301;28;20198;-70
2024/01/17 03:16:59;;;;;;;38.80;21.20;;;;;;;-142.91;100.00;56616.03;5066762;28;20218;-71
2024/01/17 03:19:26;;;;;;;38.78;21.20;;;;;;;-142.91;100.00;56616.03;5067079;28;20715;-72
2024/01/17 03:21:52;;;;;;;37.47;21.67;;;;;;;;;;5067020;28;20305;-70
2024/01/17 03:24:19;;;;;;;43.92;22.83;;;;;;;;;;5065647;28;20313;-72
2024/01/17 03:26:45;;;;;;;49.92;23.27;;;;;;;;;;5064230;28;20289;-71
2024/01/17 03:29:12;;;;;;;44.65;23.65;;;;;;;-142.91;100.00;56616.03;5065328;28;20285;-70
2024/01/17 03:31:38;;;;;;;49.47;25.40;;;;;;;;;;5064813;28;20665;-72
2024/01/17 03:34:06;;;;;;;44.70;23.50;;;;;;;;;;5065228;28;20257;-71
2024/01/17 03:36:33;;;;;;;47.22;24.67;;;;;;;-142.91;100.00;56616.03;5064878;28;20323;-71
2024/01/17 03:39:00;;;;;;;42.42;22.92;;;;;;;-142.91;100.00;56616.03;5063112;28;20731;-71
2024/01/17 03:41:26;;;;;;;45.65;22.77;;;;;;;;;;5063880;28;20194;-70
2024/01/17 03:43:52;;;;;;;40.97;22.58;;;;;;;;;;5062118;28;20778;-71
2024/01/17 03:46:19;;;;;;;37.40;21.25;;;;;;;;;;5066079;28;20293;-71
2024/01/17 03:48:47;;;;;;;41.10;19.63;;;;;;;-142.91;100.00;56616.03;5061922;28;20619;-71
2024/01/17 03:51:15;;;;;;;43.25;22.98;;;;;;;-142.91;100.00;56616.03;5065499;28;20289;-71
2024/01/17 03:53:42;;;;;;;38.13;21.13;;;;;;;-142.91;100.00;56616.03;5066062;28;20664;-72
2024/01/17 03:56:09;;;;;;;43.38;21.45;;;;;;;-142.91;100.00;56616.03;5056513;28;20222;-71
2024/01/17 03:58:37;;;;;;;38.58;22.52;;;;;;;-142.91;100.00;56616.03;5065158;28;20289;-74
2024/01/17 04:01:04;;;;;;;55.03;25.50;;;;;;;-142.91;100.00;56616.03;5061728;28;21571;-72
2024/01/17 04:03:31;;;;;;;48.90;25.73;;;;;;;-142.91;100.00;56616.03;5064796;28;20198;-69
2024/01/17 04:05:58;;;;;;;46.58;23.35;;;;;;;-142.91;100.00;56616.03;5066169;28;20208;-71
2024/01/17 04:08:26;;;;;;;56.28;24.52;;;;;;;-142.91;100.00;56616.03;5067043;28;20289;-71
2024/01/17 04:10:52;;;;;;;50.58;23.00;;;;;;;-142.91;100.00;56616.03;5065649;28;20659;-71
2024/01/17 04:13:19;;;;;;;48.17;23.38;;;;;;;;;;5065769;28;20775;-70
2024/01/17 04:15:45;;;;;;;41.72;22.83;;;;;;;-142.91;100.00;56616.03;5066151;28;20294;-70
2024/01/17 04:18:12;;;;;;;44.30;23.02;;;;;;;-142.91;100.00;56616.03;5066560;28;20214;-72
2024/01/17 04:20:39;;;;;;;39.03;21.15;;;;;;;-142.91;100.00;56616.03;5060867;28;20775;-71
2024/01/17 04:23:06;;;;;;;44.40;22.08;;;;;;;-142.91;100.00;56616.03;5060251;28;20233;-70
2024/01/17 04:25:34;;;;;;;42.75;23.13;;;;;;;-142.91;100.00;56616.03;5061720;28;20203;-72
2024/01/17 04:28:05;;;;;;;46.40;23.38;;;;;;;-142.91;100.00;56616.03;5065637;28;20584;-70
2024/01/17 04:30:32;;;;;;;48.90;22.63;;;;;;;-142.91;100.00;56616.03;5065918;28;20198;-74
2024/01/17 04:32:59;;;;;;;34.33;20.08;;;;;;;23.25;100.00;56616.03;5065941;28;20405;-71
2024/01/17 04:35:25;;;;;;;45.28;21.60;;;;;;;-142.91;100.00;56616.03;5065770;28;20739;-71
2024/01/17 04:37:53;;;;;;;54.25;22.52;;;;;;;-142.91;100.00;56616.03;5065549;28;20329;-71
2024/01/17 04:40:19;;;;;;;35.72;18.60;;;;;;;-142.91;100.00;56616.03;5066220;28;20291;-70
2024/01/17 04:42:48;;;;;;;40.10;18.70;;;;;;;-142.91;100.00;56616.03;5065940;28;20636;-72
2024/01/17 04:45:17;;;;;;;38.30;20.15;;;;;;;-142.91;100.00;56616.03;5066666;28;20212;-70
2024/01/17 04:47:43;;;;;;;40.13;19.45;;;;;;;-142.91;100.00;56616.03;5065178;28;20191;-72
2024/01/17 04:50:10;;;;;;;39.78;20.67;;;;;;;-142.91;100.00;56616.03;5066062;28;20240;-70
2024/01/17 04:52:39;;;;;;;36.08;21.00;;;;;;;-142.91;100.00;56616.03;5065828;28;20285;-70
2024/01/17 04:55:07;;;;;;;35.63;19.67;;;;;;;-142.91;100.00;56616.03;5065499;28;20858;-69
2024/01/17 04:57:34;;;;;;;38.53;19.25;;;;;;;-142.91;100.00;56616.03;5065264;28;20309;-71
2024/01/17 05:00:03;;;;;;;39.50;20.88;;;;;;;-142.91;100.00;56616.03;5065857;28;20691;-71
2024/01/17 05:02:30;;;;;;;40.70;20.95;;;;;;;-142.91;100.00;56616.03;5064786;28;20245;-72
2024/01/17 05:04:56;;;;;;;31.33;19.63;;;;;;;-142.91;100.00;56616.03;5065765;28;20289;-72
2024/01/17 05:07:23;;;;;;;49.13;21.73;;;;;;;-142.91;100.00;56616.03;5065343;28;20194;-71
2024/01/17 05:09:50;;;;;;;40.05;21.13;;;;;;;-142.91;100.00;56616.03;5065716;28;20683;-72
2024/01/17 05:12:16;;;;;;;39.63;20.70;;;;;;;-142.91;100.00;56616.03;5065163;28;20278;-71
2024/01/17 05:14:43;;;;;;;45.90;21.25;;;;;;;-142.91;100.00;56616.03;5065595;28;20770;-72
2024/01/17 05:17:11;;;;;;;45.72;21.75;;;;;;;-142.91;100.00;56616.03;5065431;28;20308;-71
2024/01/17 05:19:38;;;;;;;78.05;35.63;;;;;;;-142.91;100.00;56616.03;5069634;28;20202;-71
2024/01/17 05:24:49;;;;;;;48.05;25.83;;;;;;;-142.91;100.00;56616.03;5068079;28;20217;-72
2024/01/17 05:27:16;;;;;;;44.08;21.05;;;;;;;-142.91;100.00;56616.03;5067475;28;20743;-70
2024/01/17 05:29:44;;;;;;;43.00;23.00;;;;;;;-142.91;100.00;56616.03;5068094;28;20281;-72
2024/01/17 05:32:12;;;;;;;44.35;21.52;;;;;;;-142.91;100.00;56616.03;5067784;28;20241;-72
2024/01/17 05:34:39;;;;;;;50.92;22.92;;;;;;;-142.91;100.00;56616.03;5068263;28;20291;-72
2024/01/17 05:37:06;;;;;;;46.38;22.48;;;;;;;-142.91;100.00;56616.03;5067716;28;20674;-71
2024/01/17 05:39:32;;;;;;;53.08;25.00;;;;;;;-142.91;100.00;56616.03;5066391;28;20202;-72
2024/01/17 05:41:59;;;;;;;40.42;22.73;;;;;;;23.29;100.00;56616.03;5069218;28;20315;-72
2024/01/17 05:44:26;;;;;;;52.75;26.38;;;;;;;-142.91;100.00;56616.03;5068606;28;20895;-71
2024/01/17 05:46:52;;;;;;;45.15;23.35;;;;;;;-142.91;100.00;56616.03;5069090;28;20245;-71
2024/01/17 05:49:20;;;;;;;48.63;24.60;;;;;;;-142.91;100.00;56616.03;5068383;28;20297;-72
2024/01/17 05:51:47;;;;;;;64.03;28.52;;;;;;;-142.91;100.00;56616.03;5069070;28;20289;-71
2024/01/17 05:54:13;;;;;;;73.10;33.40;;;;;;;-142.91;100.00;56616.03;5068969;28;21523;-70
2024/01/17 05:56:40;;;;;;;76.97;32.05;;;;;;;-142.91;100.00;56616.03;5069266;28;20290;-70
2024/01/17 05:59:07;;;;;;;49.53;25.60;;;;;;;-142.91;100.00;56616.03;5068508;28;20241;-72
2024/01/17 06:01:34;;;;;;;41.47;22.13;;;;;;;;;;5068907;28;20194;-71
2024/01/17 06:04:00;;;;;;;47.63;24.77;;;;;;;-142.91;100.00;56616.03;5069264;28;21692;-71
2024/01/17 06:06:28;;;;;;;45.05;23.38;;;;;;;-142.91;100.00;56616.03;5069572;28;20198;-71
2024/01/17 06:08:55;;;;;;;49.72;23.65;;;;;;;-142.91;100.00;56616.03;5068261;28;20660;-73
2024/01/17 06:11:22;;;;;;;49.63;20.73;;;;;;;-142.91;100.00;56616.03;5068498;28;20288;-70
2024/01/17 06:13:49;;;;;;;44.97;22.60;;;;;;;-142.91;100.00;56616.03;5068091;28;20669;-71
2024/01/17 06:16:15;;;;;;;42.80;21.58;;;;;;;-142.91;100.00;56616.03;5068874;28;20746;-72
2024/01/17 06:18:42;;;;;;;42.47;23.50;;;;;;;-142.91;100.00;56616.03;5068253;28;20344;-70
2024/01/17 06:21:08;;;;;;;38.63;23.30;;;;;;;23.25;100.00;56616.03;5068312;28;20305;-71
2024/01/17 06:23:37;;;;;;;46.55;25.25;;;;;;;-142.91;100.00;56616.03;5068775;28;20296;-71
2024/01/17 06:26:04;;;;;;;46.83;24.00;;;;;;;-142.91;100.00;56616.03;5068517;28;20207;-72
2024/01/17 06:28:33;;;;;;;49.40;25.13;;;;;;;-142.91;100.00;56616.03;5067445;28;20191;-71
2024/01/17 06:31:00;;;;;;;46.88;24.67;;;;;;;-142.91;100.00;56616.03;5068053;28;20202;-72
2024/01/17 06:33:26;;;;;;;48.05;24.38;;;;;;;-142.91;100.00;56616.03;5068171;28;20234;-71
2024/01/17 06:35:53;;;;;;;41.05;22.38;;;;;;;-142.91;100.00;56616.03;5068697;28;20281;-70
2024/01/17 06:38:19;;;;;;;42.75;23.50;;;;;;;;;;5067392;28;20261;-70
2024/01/17 06:40:47;;;;;;;45.72;24.55;;;;;;;;;;5066884;28;20234;-72
2024/01/17 06:43:14;;;;;;;42.40;24.00;;;;;;;-142.91;100.00;56616.03;5067545;28;20223;-71
2024/01/17 06:45:40;;;;;;;48.45;25.27;;;;;;;;;;5068107;28;20301;-71
2024/01/17 06:48:07;;;;;;;43.45;23.67;;;;;;;-142.91;100.00;56616.03;5067587;28;20334;-71
2024/01/17 06:50:34;;;;;;;42.05;25.10;;;;;;;-142.91;100.00;56616.03;5067941;28;20285;-72
2024/01/17 06:53:00;;;;;;;47.92;27.17;;;;;;;;;;5067613;28;20289;-72
2024/01/17 06:55:26;;;;;;;50.00;26.95;;;;;;;;;;5068705;28;20309;-71
2024/01/17 06:57:54;;;;;;;49.28;27.02;;;;;;;;;;5067307;28;20313;-70
2024/01/17 07:00:21;;;;;;;52.08;26.77;;;;;;;;;;5068637;28;20307;-71
2024/01/17 07:02:47;;;;;;;47.80;27.23;;;;;;;;;;5066368;28;20290;-70
2024/01/17 07:05:14;;;;;;;43.17;25.45;;;;;;;-142.91;100.00;56616.03;5067287;28;20229;-71
2024/01/17 07:07:41;;;;;;;47.90;27.23;;;;;;;;;;5066740;28;20197;-71
2024/01/17 07:10:08;;;;;;;50.20;26.08;;;;;;;-142.91;100.00;56616.03;5067212;28;20234;-70
2024/01/17 07:12:35;;;;;;;44.95;24.75;;;;;;;23.26;100.00;56616.03;5067108;28;20680;-72
2024/01/17 07:15:03;;;;;;;47.92;25.98;;;;;;;-142.91;100.00;56616.03;5067242;28;20628;-71
2024/01/17 07:17:29;;;;;;;47.42;26.42;;;;;;;;;;5065622;28;20224;-72
2024/01/17 07:19:56;;;;;;;41.72;24.55;;;;;;;;;;5067223;28;20297;-71
2024/01/17 07:22:22;;;;;;;53.28;26.17;;;;;;;;;;5065761;28;20265;-70
2024/01/17 07:24:48;;;;;;;48.72;28.00;;;;;;;;;;5065999;28;20285;-71
2024/01/17 07:27:15;;;;;;;52.15;28.55;;;;;;;;;;5065183;28;20290;-72
2024/01/17 07:29:41;;;;;;;51.42;29.00;;;;;;;;;;5065642;28;20289;-70
2024/01/17 07:32:09;;;;;;;53.83;31.85;;;;;;;;;;5065273;28;20664;-70
2024/01/17 07:34:35;;;;;;;64.70;35.33;;;;;;;;;;5064505;28;20321;-71
2024/01/17 07:37:02;;;;;;;56.60;30.60;;;;;;;23.26;100.00;56616.03;5058082;28;20306;-79
2024/01/17 07:39:29;;;;;;;48.92;27.40;;;;;;;23.25;100.00;56616.03;5066761;28;20672;-76
2024/01/17 07:41:56;;;;;;;43.70;24.90;;;;;;;-142.91;100.00;56616.03;5068281;28;20233;-75
2024/01/17 07:44:26;;;;;;;47.17;22.95;;;;;;;-142.91;100.00;56616.03;5068341;28;20238;-77
2024/01/17 07:46:53;;;;;;;36.60;22.73;;;;;;;-142.91;100.00;56616.03;5069034;28;20230;-74
2024/01/17 07:49:21;;;;;;;38.80;24.27;;;;;;;-142.91;100.00;56616.03;5068312;28;20230;-76
2024/01/17 07:51:48;;;;;;;35.60;22.73;;;;;;;-142.91;100.00;56616.03;5069132;28;20245;-75
2024/01/17 07:54:16;;;;;;;38.38;22.08;;;;;;;23.25;100.00;56616.03;5071931;28;20208;-75
2024/01/17 07:56:43;;;;;;;38.42;23.30;;;;;;;;;;5069850;28;20199;-74
2024/01/17 07:59:09;;;;;;;36.85;20.38;;;;;;;23.26;100.00;56616.03;5064800;28;20309;-77
2024/01/17 08:01:36;;;;;;;40.58;22.30;;;;;;;23.25;100.00;56616.03;5069103;28;20723;-75
2024/01/17 08:04:03;;;;;;;55.40;26.00;;;;;;;23.41;100.00;56616.03;5068567;28;20217;-75
2024/01/17 08:06:31;;;;;;;43.85;23.50;;;;;;;-142.91;100.00;56616.03;5069016;28;20233;-75
2024/01/17 08:08:59;;;;;;;45.38;25.30;;;;;;;;;;5068231;28;20255;-75
2024/01/17 08:11:25;;;;;;;43.35;25.17;;;;;;;-142.91;100.00;56616.03;5069898;28;20205;-74
2024/01/17 08:13:52;;;;;;;53.63;29.85;;;;;;;23.41;100.00;56616.03;5069388;28;20283;-73
2024/01/17 08:16:19;;;;;;;46.03;28.85;;;;;;;-142.91;100.00;56616.03;5069802;28;20229;-75
2024/01/17 08:18:45;;;;;;;60.00;29.90;;;;;;;;;;5082100;28;20218;-78
2024/01/17 08:21:12;;;;;;;44.40;28.05;;;;;;;23.29;100.00;56616.03;5069808;28;20280;-75
2024/01/17 08:23:40;;;;;;;51.40;29.08;;;;;;;;;;5070258;28;20209;-75
2024/01/17 08:26:07;;;;;;;54.20;27.65;;;;;;;;;;5070270;28;20268;-75
2024/01/17 08:28:33;;;;;;;47.78;26.52;;;;;;;;;;5070309;28;20202;-76
2024/01/17 08:31:00;;;;;;;41.72;25.08;;;;;;;23.26;100.00;56616.03;5070730;28;20290;-74
2024/01/17 08:33:27;;;;;;;41.15;23.80;;;;;;;23.26;100.00;56616.03;5070006;28;20706;-75
2024/01/17 08:35:54;;;;;;;44.70;24.08;;;;;;;23.27;100.00;56616.03;5070086;28;20237;-74
2024/01/17 08:38:21;;;;;;;40.22;23.33;;;;;;;23.25;100.00;56616.03;5069953;28;20214;-76
2024/01/17 08:40:49;;;;;;;34.30;21.92;;;;;;;23.25;100.00;56616.03;5070081;28;20650;-76
2024/01/17 08:43:16;;;;;;;37.35;22.83;;;;;;;23.27;100.00;56616.03;5069794;28;20703;-77
2024/01/17 08:45:42;;;;;;;40.17;23.65;;;;;;;23.25;100.00;56616.03;5070151;28;20289;-74
2024/01/17 08:48:09;;;;;;;36.03;20.83;;;;;;;23.25;100.00;56616.03;5069467;28;20671;-74
2024/01/17 08:50:35;;;;;;;39.72;22.63;;;;;;;23.26;100.00;56616.03;5070128;28;20289;-75
2024/01/17 08:53:03;;;;;;;41.67;22.08;;;;;;;23.27;100.00;56616.03;5069347;28;20198;-75
2024/01/17 08:55:29;;;;;;;32.70;21.27;;;;;;;;;;5070405;28;20257;-76
2024/01/17 08:57:57;;;;;;;36.88;21.55;;;;;;;23.26;100.00;56616.03;5088054;28;20312;-76
2024/01/17 09:00:24;;;;;;;39.60;18.67;;;;;;;23.26;100.00;56616.03;5076192;28;20206;-76
2024/01/17 09:02:50;;;;;;;37.13;19.58;;;;;;;23.25;100.00;56616.03;5069569;28;20245;-75
2024/01/17 09:05:18;;;;;;;31.98;18.58;;;;;;;23.25;100.00;56616.03;5069951;28;20248;-73
2024/01/17 09:07:45;;;;;;;32.97;19.30;;;;;;;23.25;100.00;56616.03;5070096;28;20647;-77
2024/01/17 09:10:13;;;;;;;35.30;20.30;;;;;;;-142.91;100.00;56616.03;5069361;28;20259;-75
2024/01/17 09:12:39;;;;;;;32.38;19.33;;;;;;;23.26;100.00;56616.03;5070058;28;20202;-74
2024/01/17 09:15:08;;;;;;;33.35;19.17;;;;;;;-142.91;100.00;56616.03;5069562;28;20229;-76
2024/01/17 09:17:35;;;;;;;29.98;18.25;;;;;;;23.25;100.00;56616.03;5070078;28;20202;-76
2024/01/17 09:20:03;;;;;;;35.00;19.55;;;;;;;23.25;100.00;56616.03;5069727;28;20204;-74
2024/01/17 09:22:30;;;;;;;34.00;19.85;;;;;;;23.25;100.00;56616.03;5069873;28;20226;-76
2024/01/17 09:24:56;;;;;;;33.08;19.73;;;;;;;;;;5067991;28;20242;-77
2024/01/17 09:27:23;;;;;;;35.92;18.70;;;;;;;23.25;100.00;56616.03;5068120;28;20218;-75
2024/01/17 09:29:49;;;;;;;30.38;18.80;;;;;;;-142.91;100.00;56616.03;5067345;28;20241;-77
2024/01/17 09:32:18;;;;;;;39.90;22.30;;;;;;;23.25;100.00;56616.03;5068029;28;20390;-77
2024/01/17 09:34:47;;;;;;;36.42;20.98;;;;;;;23.29;100.00;56616.03;5068287;28;20279;-74
2024/01/17 09:37:14;;;;;;;40.88;21.00;;;;;;;23.25;100.00;56616.03;5067862;28;20194;-75
2024/01/17 09:39:41;;;;;;;40.42;21.27;;;;;;;23.29;100.00;56616.03;5068258;28;20304;-77
2024/01/17 09:42:07;;;;;;;41.38;22.35;;;;;;;23.25;100.00;56616.03;5069388;28;20253;-74
2024/01/17 09:44:35;;;;;;;44.22;24.17;;;;;;;23.25;100.00;56616.03;5068935;28;20794;-76
2024/01/17 09:47:02;;;;;;;35.05;22.55;;;;;;;-142.91;100.00;56616.03;5069649;28;20198;-76
2024/01/17 09:49:31;;;;;;;39.97;21.92;;;;;;;23.29;100.00;56616.03;5069313;28;20747;-75
2024/01/17 09:51:57;;;;;;;45.22;22.88;;;;;;;23.25;100.00;56616.03;5069716;28;20241;-74
2024/01/17 09:54:25;;;;;;;39.40;22.25;;;;;;;23.26;100.00;56616.03;5069513;28;20237;-76
2024/01/17 09:56:55;;;;;;;40.28;20.90;;;;;;;23.29;100.00;56616.03;5069770;28;20209;-74
2024/01/17 09:59:28;;;;;;;38.95;23.02;;;;;;;23.26;100.00;56616.03;5069161;28;20246;-75
2024/01/17 10:01:54;;;;;;;40.88;22.17;;;;;;;23.26;100.00;56616.03;5070081;28;20202;-72
2024/01/17 10:04:23;;;;;;;37.15;21.73;;;;;;;23.27;100.00;56616.03;5070013;28;20664;-75
2024/01/17 10:06:52;;;;;;;41.33;22.45;;;;;;;23.29;100.00;56616.03;5074520;28;20260;-75
2024/01/17 10:09:22;;;;;;;35.65;20.60;;;;;;;23.29;100.00;56616.03;5072925;28;20203;-75
2024/01/17 10:11:49;;;;;;;42.60;22.88;;;;;;;23.27;100.00;56616.03;5072628;28;20201;-76
2024/01/17 10:14:16;;;;;;;41.92;23.13;;;;;;;23.29;100.00;56616.03;5073070;28;20202;-75
2024/01/17 10:16:42;;;;;;;42.50;22.48;;;;;;;23.29;100.00;56616.03;5072611;28;20241;-74
2024/01/17 10:19:09;;;;;;;43.13;25.88;;;;;;;23.25;100.00;56616.03;5073091;28;20305;-76
2024/01/17 10:21:36;;;;;;;46.35;23.98;;;;;;;23.27;100.00;56616.03;5071840;28;20724;-75
2024/01/17 10:24:05;;;;;;;39.33;24.40;;;;;;;23.25;100.00;56616.03;5073428;28;20199;-76
2024/01/17 10:26:32;;;;;;;43.35;24.85;;;;;;;-142.91;100.00;56616.03;5072838;28;20241;-74
2024/01/17 10:28:59;;;;;;;43.97;23.83;;;;;;;23.25;100.00;56616.03;5073083;28;20203;-74
2024/01/17 10:31:26;;;;;;;42.08;22.50;;;;;;;23.25;100.00;56616.03;5071469;28;20233;-76
2024/01/17 10:33:53;;;;;;;39.65;23.73;;;;;;;-142.91;100.00;56616.03;5072365;28;20234;-75
2024/01/17 10:36:20;;;;;;;46.38;24.95;;;;;;;-142.91;100.00;56616.03;5071503;28;20253;-76
2024/01/17 10:38:47;;;;;;;40.47;21.42;;;;;;;;;;5072679;28;20226;-75
2024/01/17 10:41:15;;;;;;;50.00;20.48;;;;;;;-142.91;100.00;56616.03;5071661;28;20718;-74
2024/01/17 10:43:54;;;;;;;36.88;19.42;;;;;;;-142.91;100.00;56616.03;5072221;28;20265;-74
2024/01/17 10:46:20;;;;;;;34.95;21.48;;;;;;;23.33;100.00;56616.03;5071801;28;20202;-74
2024/01/17 10:48:47;;;;;;;46.25;20.02;;;;;;;23.57;100.00;56616.03;5083825;28;20288;-73
2024/01/17 10:51:20;;;;;;;42.40;20.92;;;;;;;-142.91;100.00;56616.03;5087125;28;20230;-73
2024/01/17 10:53:48;;;;;;;35.40;20.00;;;;;;;106.45;100.00;56616.03;5072665;28;20285;-74
2024/01/17 10:56:19;;;;;;;36.00;19.30;;;;;;;-142.91;100.00;56616.03;5071611;28;20198;-75
2024/01/17 10:58:48;;;;;;;36.25;21.08;;;;;;;;;;5072348;28;20226;-75
2024/01/17 11:01:16;;;;;;;41.08;20.60;;;;;;;-142.91;100.00;56616.03;5069024;28;20289;-74
2024/01/17 11:03:45;;;;;;;34.83;19.98;;;;;;;-142.91;100.00;56616.03;5071394;28;20241;-73
2024/01/17 11:06:13;;;;;;;35.33;22.02;;;;;;;-142.91;100.00;56616.03;5071672;28;20249;-75
2024/01/17 11:08:42;;;;;;;31.67;17.33;;;;;;;-142.91;100.00;56616.03;5071706;28;20239;-75
2024/01/17 11:11:10;;;;;;;25.35;17.75;;;;;;;23.33;100.00;56616.03;5071921;28;20271;-75
2024/01/17 11:13:38;;;;;;;27.50;14.57;;;;;;;23.29;100.00;56616.03;5071048;28;20574;-75
2024/01/17 11:16:07;;;;;;;31.67;14.27;;;;;;;23.26;100.00;56616.03;5070633;28;20289;-74
2024/01/17 11:18:36;;;;;;;23.65;14.60;;;;;;;23.27;100.00;56616.03;5071464;28;20702;-76
2024/01/17 11:21:04;;;;;;;22.15;13.77;;;;;;;23.25;100.00;56616.03;5071651;28;20305;-76
2024/01/17 11:23:36;;;;;;;24.67;13.60;;;;;;;-142.91;100.00;56616.03;5071391;28;20230;-77
2024/01/17 11:26:14;;;;;;;23.27;13.85;;;;;;;-142.91;100.00;56616.03;5061409;28;20618;-74